Terminal Aerodrome Forecast
Issued by NWS Charleston, WV

Current Version | Previous Version | Text Only | Print | Product List | Glossary Off
Versions: 1 2 3 4 5 6 7 8 9 10 11 12 13 14 15 16 17 18 19 20 21

519
FTUS41 KRLX 260535
TAFEKN
TAF
KEKN 260535Z 2606/2706 00000KT P6SM SKC
     FM260800 00000KT 4SM BR BKN070
     FM261200 00000KT P6SM SCT080
     FM261600 25005KT P6SM VCSH BKN045
     FM270000 VRB03KT P6SM SCT070
     FM270500 00000KT 3SM BR SCT080=

USA.gov is the U.S. government's official web portal to all federal, state and local government web resources and services.